createdAt,value
2018-02-22T00:00:22.598Z,36.73
2018-02-22T00:02:50.150Z,38.23
2018-02-22T00:05:17.723Z,36.73
2018-02-22T00:07:45.282Z,38.63
2018-02-22T00:10:12.846Z,34.53
2018-02-22T00:12:40.536Z,36.03
2018-02-22T00:15:08.079Z,37.20
2018-02-22T00:17:35.730Z,37.77
2018-02-22T00:20:03.446Z,34.90
2018-02-22T00:22:31.875Z,36.17
2018-02-22T00:24:59.425Z,36.63
2018-02-22T00:27:27.004Z,34.83
2018-02-22T00:29:54.654Z,35.47
2018-02-22T00:32:22.247Z,36.80
2018-02-22T00:34:49.873Z,36.37
2018-02-22T00:37:17.425Z,34.47
2018-02-22T00:39:44.991Z,38.20
2018-02-22T00:42:12.532Z,35.60
2018-02-22T00:44:40.117Z,38.53
2018-02-22T00:47:07.691Z,37.50
2018-02-22T00:49:35.235Z,37.53
2018-02-22T00:52:02.784Z,36.20
2018-02-22T00:54:30.354Z,37.40
2018-02-22T00:56:58.261Z,35.60
2018-02-22T00:59:26.564Z,35.53
2018-02-22T01:01:54.149Z,35.80
2018-02-22T01:04:21.728Z,36.77
2018-02-22T01:06:49.272Z,33.77
2018-02-22T01:09:16.826Z,33.80
2018-02-22T01:11:44.398Z,35.17
2018-02-22T01:14:11.967Z,32.80
2018-02-22T01:16:39.534Z,36.83
2018-02-22T01:19:07.182Z,37.47
2018-02-22T01:21:34.726Z,36.67
2018-02-22T01:24:02.309Z,33.93
2018-02-22T01:26:29.979Z,37.80
2018-02-22T01:28:57.513Z,36.40
2018-02-22T01:31:25.299Z,37.90
2018-02-22T01:33:52.853Z,32.67
2018-02-22T01:36:20.402Z,38.50
2018-02-22T01:38:47.946Z,35.67
2018-02-22T01:41:15.520Z,37.67
2018-02-22T01:43:43.054Z,35.63
2018-02-22T01:46:10.615Z,39.87
2018-02-22T01:48:38.182Z,37.13
2018-02-22T01:51:05.771Z,34.73
2018-02-22T01:53:33.328Z,39.03
2018-02-22T01:56:00.894Z,36.63
2018-02-22T01:58:28.438Z,39.07
2018-02-22T02:00:56.011Z,38.83
2018-02-22T02:03:23.582Z,36.33
2018-02-22T02:05:51.164Z,36.63
2018-02-22T02:08:18.747Z,39.67
2018-02-22T02:10:47.064Z,36.90
2018-02-22T02:13:14.629Z,37.50
2018-02-22T02:15:42.362Z,37.67
2018-02-22T02:18:09.913Z,37.87
2018-02-22T02:20:38.346Z,40.07
2018-02-22T02:23:05.997Z,39.13
2018-02-22T02:25:33.547Z,41.07
2018-02-22T02:28:06.818Z,38.27
2018-02-22T02:30:34.398Z,39.63
2018-02-22T02:33:01.988Z,38.10
2018-02-22T02:35:29.549Z,39.80
2018-02-22T02:37:57.196Z,37.93
2018-02-22T02:40:24.763Z,37.23
2018-02-22T02:42:52.441Z,39.27
2018-02-22T02:45:19.997Z,41.27
2018-02-22T02:47:47.631Z,40.10
2018-02-22T02:50:15.219Z,39.30
2018-02-22T02:52:42.866Z,40.20
2018-02-22T02:55:11.436Z,40.85
2018-02-22T02:57:38.974Z,38.10
2018-02-22T03:00:06.538Z,38.13
2018-02-22T03:02:34.135Z,38.77
2018-02-22T03:05:01.693Z,41.00
2018-02-22T03:07:29.244Z,38.60
2018-02-22T03:09:56.783Z,40.57
2018-02-22T03:12:24.347Z,41.27
2018-02-22T03:14:51.903Z,41.93
2018-02-22T03:17:19.449Z,40.90
2018-02-22T03:19:46.994Z,38.53
2018-02-22T03:22:15.324Z,40.33
2018-02-22T03:24:42.880Z,39.90
2018-02-22T03:27:10.437Z,38.27
2018-02-22T03:29:38.027Z,40.40
2018-02-22T03:32:05.673Z,36.17
2018-02-22T03:34:33.337Z,41.90
2018-02-22T03:37:00.915Z,43.07
2018-02-22T03:39:28.459Z,41.17
2018-02-22T03:41:56.006Z,39.77
2018-02-22T03:44:23.569Z,40.40
2018-02-22T03:46:51.122Z,39.20
2018-02-22T03:49:18.661Z,42.97
2018-02-22T03:51:46.214Z,41.63
2018-02-22T03:54:13.756Z,40.63
2018-02-22T03:56:42.068Z,38.57
2018-02-22T03:59:09.679Z,40.77
2018-02-22T04:01:37.219Z,40.47
2018-02-22T04:04:04.783Z,39.80
2018-02-22T04:06:32.319Z,40.03
2018-02-22T04:08:59.861Z,36.87
2018-02-22T04:11:27.442Z,40.60
2018-02-22T04:13:55.007Z,40.03
2018-02-22T04:16:22.552Z,39.53
2018-02-22T04:18:50.108Z,39.47
2018-02-22T04:21:17.661Z,38.30
2018-02-22T04:23:45.208Z,38.73
2018-02-22T04:26:12.779Z,38.60
2018-02-22T04:28:40.374Z,39.40
2018-02-22T04:31:07.919Z,41.47
2018-02-22T04:33:35.481Z,40.10
2018-02-22T04:36:03.028Z,40.70
2018-02-22T04:38:30.571Z,36.73
2018-02-22T04:40:58.130Z,37.67
2018-02-22T04:43:25.663Z,39.53
2018-02-22T04:45:53.291Z,38.47
2018-02-22T04:48:20.954Z,39.50
2018-02-22T04:50:48.497Z,39.90
2018-02-22T04:53:16.068Z,38.13
2018-02-22T04:55:43.747Z,40.23
2018-02-22T04:58:11.285Z,41.47
2018-02-22T05:00:38.841Z,41.27
2018-02-22T05:03:06.417Z,39.33
2018-02-22T05:05:33.980Z,40.90
2018-02-22T05:08:01.526Z,40.37
2018-02-22T05:10:29.208Z,39.70
2018-02-22T05:12:56.860Z,30.17
2018-02-22T05:15:24.422Z,29.67
2018-02-22T05:17:51.978Z,28.67
2018-02-22T05:20:19.536Z,26.43
2018-02-22T05:22:47.079Z,26.10
2018-02-22T05:25:14.643Z,26.63
2018-02-22T05:27:42.192Z,27.33
2018-02-22T05:30:10.811Z,28.30
2018-02-22T05:32:38.381Z,29.27
2018-02-22T05:35:06.030Z,27.67
2018-02-22T05:37:33.589Z,28.23
2018-02-22T05:40:01.174Z,27.70
2018-02-22T05:42:28.737Z,27.43
2018-02-22T05:45:04.369Z,25.50
2018-02-22T05:47:31.915Z,27.50
2018-02-22T05:49:59.469Z,26.83
2018-02-22T05:52:27.040Z,26.00
2018-02-22T05:54:54.583Z,26.00
2018-02-22T05:57:22.130Z,25.87
2018-02-22T05:59:49.740Z,24.47
2018-02-22T06:02:17.302Z,27.03
2018-02-22T06:04:44.880Z,26.57
2018-02-22T06:07:13.219Z,25.57
2018-02-22T06:09:40.758Z,25.10
2018-02-22T06:12:08.343Z,26.03
2018-02-22T06:14:35.926Z,26.57
2018-02-22T06:17:03.492Z,25.80
2018-02-22T06:19:31.043Z,24.77
2018-02-22T06:21:59.370Z,24.23
2018-02-22T06:24:26.917Z,24.70
2018-02-22T06:26:54.520Z,25.53
2018-02-22T06:29:22.190Z,31.67
2018-02-22T06:31:49.752Z,34.47
2018-02-22T06:34:17.317Z,32.20
2018-02-22T06:36:44.902Z,30.87
2018-02-22T06:39:13.230Z,35.80
2018-02-22T06:41:40.780Z,35.80
2018-02-22T06:44:08.361Z,34.13
2018-02-22T06:46:35.984Z,32.87
2018-02-22T06:49:03.527Z,30.80
2018-02-22T06:51:31.967Z,26.63
2018-02-22T06:53:59.513Z,25.23
2018-02-22T06:56:27.046Z,26.27
2018-02-22T06:58:54.629Z,22.67
2018-02-22T07:01:22.193Z,20.13
2018-02-22T07:03:49.754Z,22.10
2018-02-22T07:06:17.326Z,23.77
2018-02-22T07:08:44.873Z,23.10
2018-02-22T07:11:12.423Z,23.90
2018-02-22T07:13:39.974Z,23.63
2018-02-22T07:16:07.542Z,25.00
2018-02-22T07:18:35.101Z,25.80
2018-02-22T07:21:02.789Z,25.37
2018-02-22T07:23:30.351Z,24.27
2018-02-22T07:25:57.916Z,25.03
2018-02-22T07:28:25.498Z,20.60
2018-02-22T07:30:53.055Z,23.30
2018-02-22T07:33:20.607Z,24.07
2018-02-22T07:35:48.255Z,22.80
2018-02-22T07:38:15.922Z,21.57
2018-02-22T07:40:43.485Z,19.43
2018-02-22T07:43:11.090Z,21.77
2018-02-22T07:45:38.610Z,22.30
2018-02-22T07:48:06.252Z,21.97
2018-02-22T07:50:33.815Z,22.43
2018-02-22T07:53:02.121Z,18.37
2018-02-22T07:55:29.757Z,16.30
2018-02-22T07:57:57.309Z,15.63
2018-02-22T08:00:24.866Z,20.33
2018-02-22T08:02:52.440Z,13.53
2018-02-22T08:05:20.102Z,15.40
2018-02-22T08:07:47.751Z,18.00
2018-02-22T08:10:15.336Z,13.20
2018-02-22T08:12:42.992Z,13.07
2018-02-22T08:15:11.162Z,12.05
2018-02-22T08:17:38.725Z,21.30
2018-02-22T08:20:06.377Z,12.97
2018-02-22T08:22:33.923Z,14.17
2018-02-22T08:25:01.495Z,12.00
2018-02-22T08:27:29.064Z,17.63
2018-02-22T08:29:56.597Z,19.77
2018-02-22T08:32:24.152Z,15.33
2018-02-22T08:34:51.737Z,19.40
2018-02-22T08:37:20.072Z,11.47
2018-02-22T08:39:48.500Z,17.27
2018-02-22T08:42:16.068Z,11.93
2018-02-22T08:44:43.781Z,18.93
2018-02-22T08:47:11.302Z,11.57
2018-02-22T08:49:38.863Z,13.53
2018-02-22T08:52:06.429Z,10.33
2018-02-22T08:54:34.735Z,11.17
2018-02-22T08:57:02.304Z,11.23
2018-02-22T08:59:29.840Z,14.10
2018-02-22T09:01:58.183Z,10.80
2018-02-22T09:04:25.751Z,12.00
2018-02-22T09:06:53.392Z,11.27
2018-02-22T09:09:20.937Z,11.33
2018-02-22T09:11:48.502Z,16.60
2018-02-22T09:14:16.061Z,16.43
2018-02-22T09:16:43.606Z,10.67
2018-02-22T09:19:11.179Z,18.07
2018-02-22T09:21:38.726Z,8.63
2018-02-22T09:24:06.277Z,11.17
2018-02-22T09:26:33.848Z,10.73
2018-02-22T09:29:01.439Z,15.30
2018-02-22T09:31:29.009Z,11.33
2018-02-22T09:33:56.575Z,12.37
2018-02-22T09:36:24.224Z,16.97
2018-02-22T09:38:51.768Z,9.77
2018-02-22T09:41:19.329Z,10.93
2018-02-22T09:43:47.021Z,10.23
2018-02-22T09:46:14.588Z,12.20
2018-02-22T09:48:42.157Z,14.40
2018-02-22T09:51:09.793Z,13.37
2018-02-22T09:53:37.338Z,15.47
2018-02-22T09:56:04.889Z,11.40
2018-02-22T09:58:32.443Z,12.10
2018-02-22T10:00:59.986Z,9.27
2018-02-22T10:03:27.554Z,11.27
2018-02-22T10:05:55.082Z,11.63
2018-02-22T10:08:23.397Z,14.30
2018-02-22T10:10:50.989Z,8.80
2018-02-22T10:13:18.539Z,11.93
2018-02-22T10:15:46.077Z,14.47
2018-02-22T10:18:13.642Z,11.63
2018-02-22T10:20:41.187Z,14.90
2018-02-22T10:23:08.771Z,14.17
2018-02-22T10:25:36.343Z,14.00
2018-02-22T10:28:03.887Z,10.33
2018-02-22T10:30:31.452Z,9.53
2018-02-22T10:32:58.997Z,12.03
2018-02-22T10:35:26.547Z,8.27
2018-02-22T10:37:54.075Z,14.03
2018-02-22T10:40:21.649Z,7.70
2018-02-22T10:42:49.968Z,7.20
2018-02-22T10:45:17.518Z,8.10
2018-02-22T10:47:45.094Z,12.93
2018-02-22T10:50:12.649Z,11.97
2018-02-22T10:52:40.190Z,8.47
2018-02-22T10:55:07.760Z,10.77
2018-02-22T10:57:35.301Z,8.77
2018-02-22T11:00:02.854Z,11.30
2018-02-22T11:02:36.803Z,7.90
2018-02-22T11:05:04.353Z,9.30
2018-02-22T11:07:32.022Z,8.07
2018-02-22T11:09:59.609Z,13.00
2018-02-22T11:12:27.178Z,12.60
2018-02-22T11:14:54.826Z,12.03
2018-02-22T11:17:22.422Z,10.33
2018-02-22T11:19:50.733Z,9.50
2018-02-22T11:22:18.296Z,12.03
2018-02-22T11:24:45.875Z,6.80
2018-02-22T11:27:13.546Z,10.67
2018-02-22T11:29:41.113Z,10.40
2018-02-22T11:32:08.776Z,9.10
2018-02-22T11:34:36.345Z,5.07
2018-02-22T11:37:03.916Z,10.93
2018-02-22T11:39:32.232Z,6.43
2018-02-22T11:41:59.776Z,7.77
2018-02-22T11:44:27.388Z,9.13
2018-02-22T11:46:54.962Z,7.83
2018-02-22T11:49:22.608Z,6.63
2018-02-22T11:51:50.185Z,6.80
2018-02-22T11:54:17.746Z,10.03
2018-02-22T11:56:45.292Z,9.30
2018-02-22T11:59:12.850Z,8.97
2018-02-22T12:01:40.504Z,7.50
2018-02-22T12:04:08.052Z,7.53
2018-02-22T12:06:35.635Z,7.37
2018-02-22T12:09:03.193Z,8.00
2018-02-22T12:11:30.758Z,7.47
2018-02-22T12:13:58.417Z,7.50
2018-02-22T12:16:25.971Z,7.47
2018-02-22T12:18:53.530Z,7.40
2018-02-22T12:21:21.079Z,9.27
2018-02-22T12:23:48.743Z,6.23
2018-02-22T12:26:16.303Z,9.63
2018-02-22T12:28:43.857Z,5.53
2018-02-22T12:31:11.545Z,6.80
2018-02-22T12:33:39.203Z,7.40
2018-02-22T12:36:06.859Z,5.93
2018-02-22T12:38:34.420Z,6.27
2018-02-22T12:41:02.044Z,5.60
2018-02-22T12:43:30.646Z,6.63
2018-02-22T12:45:58.218Z,7.13
2018-02-22T12:48:25.765Z,7.97
2018-02-22T12:50:53.348Z,5.83
2018-02-22T12:53:20.915Z,5.93
2018-02-22T12:55:48.579Z,5.93
2018-02-22T12:58:16.117Z,5.27
2018-02-22T13:00:43.688Z,8.87
2018-02-22T13:03:11.349Z,6.20
2018-02-22T13:05:39.040Z,8.23
2018-02-22T13:08:06.683Z,5.10
2018-02-22T13:10:34.239Z,6.50
2018-02-22T13:13:01.785Z,6.40
2018-02-22T13:15:29.348Z,8.27
2018-02-22T13:17:56.893Z,6.93
2018-02-22T13:20:24.441Z,4.83
2018-02-22T13:22:51.998Z,6.77
2018-02-22T13:25:19.550Z,5.37
2018-02-22T13:27:47.155Z,8.90
2018-02-22T13:30:14.797Z,7.30
2018-02-22T13:32:54.332Z,5.00
2018-02-22T13:35:21.893Z,4.70
2018-02-22T13:38:10.994Z,4.40
2018-02-22T13:40:38.570Z,7.17
2018-02-22T13:43:06.111Z,6.00
2018-02-22T13:45:34.488Z,5.03
2018-02-22T13:48:02.068Z,5.77
2018-02-22T13:50:41.587Z,10.70
2018-02-22T13:53:09.162Z,5.53
2018-02-22T13:55:36.693Z,7.60
2018-02-22T13:58:04.247Z,5.23
2018-02-22T14:00:43.483Z,8.73
2018-02-22T14:03:11.044Z,12.03
2018-02-22T14:05:38.621Z,5.60
2018-02-22T14:08:06.271Z,12.47
2018-02-22T14:10:33.821Z,4.07
2018-02-22T14:13:01.386Z,4.67
2018-02-22T14:15:28.938Z,6.60
2018-02-22T14:17:56.482Z,5.23
2018-02-22T14:20:24.070Z,10.00
2018-02-22T14:22:51.639Z,5.97
2018-02-22T14:25:19.198Z,5.67
2018-02-22T14:27:46.747Z,5.77
2018-02-22T14:30:14.315Z,7.73
2018-02-22T14:32:41.851Z,4.10
2018-02-22T14:35:09.793Z,7.65
2018-02-22T14:37:38.126Z,7.60
2018-02-22T14:40:05.788Z,6.60
2018-02-22T14:42:33.340Z,10.50
2018-02-22T14:45:00.905Z,9.90
2018-02-22T14:47:28.469Z,9.60
2018-02-22T14:49:56.018Z,5.27
2018-02-22T14:52:23.576Z,8.57
2018-02-22T14:54:51.126Z,7.67
2018-02-22T14:57:18.688Z,8.17
2018-02-22T14:59:46.255Z,6.70
2018-02-22T15:02:19.434Z,6.50
2018-02-22T15:04:47.846Z,5.63
2018-02-22T15:07:15.396Z,6.67
2018-02-22T15:09:42.956Z,4.30
2018-02-22T15:12:10.540Z,7.60
2018-02-22T15:14:38.087Z,5.60
2018-02-22T15:17:05.761Z,7.23
2018-02-22T15:19:33.331Z,4.83
2018-02-22T15:22:00.892Z,6.07
2018-02-22T15:24:28.449Z,4.50
2018-02-22T15:26:56.092Z,5.43
2018-02-22T15:29:23.652Z,5.43
2018-02-22T15:31:51.311Z,5.23
2018-02-22T15:34:18.966Z,4.47
2018-02-22T15:36:46.523Z,5.57
2018-02-22T15:39:14.115Z,6.87
2018-02-22T15:41:41.709Z,4.10
2018-02-22T15:44:09.331Z,4.67
2018-02-22T15:46:36.903Z,4.57
2018-02-22T15:49:04.489Z,4.33
2018-02-22T15:51:32.047Z,7.87
2018-02-22T15:54:00.372Z,5.00
2018-02-22T15:56:27.945Z,8.53
2018-02-22T15:58:55.603Z,4.20
2018-02-22T16:01:23.154Z,6.20
2018-02-22T16:03:50.693Z,5.93
2018-02-22T16:06:18.256Z,7.50
2018-02-22T16:08:45.790Z,4.03
2018-02-22T16:11:14.129Z,4.83
2018-02-22T16:13:41.674Z,6.57
2018-02-22T16:16:09.232Z,4.70
2018-02-22T16:18:37.711Z,4.47
2018-02-22T16:21:05.267Z,4.70
2018-02-22T16:23:32.843Z,5.30
2018-02-22T16:26:00.509Z,7.00
2018-02-22T16:28:28.167Z,4.50
2018-02-22T16:30:55.706Z,7.80
2018-02-22T16:33:23.254Z,5.73
2018-02-22T16:35:50.818Z,5.47
2018-02-22T16:38:18.357Z,3.73
2018-02-22T16:40:45.949Z,4.40
2018-02-22T16:43:13.496Z,4.33
2018-02-22T16:45:41.084Z,5.83
2018-02-22T16:48:08.635Z,4.00
2018-02-22T16:50:36.211Z,6.90
2018-02-22T16:53:03.756Z,3.80
2018-02-22T16:55:31.303Z,4.67
2018-02-22T16:57:58.858Z,7.37
2018-02-22T17:00:26.437Z,3.77
2018-02-22T17:02:54.755Z,5.27
2018-02-22T17:05:23.065Z,4.03
2018-02-22T17:07:50.602Z,4.80
2018-02-22T17:10:18.922Z,5.47
2018-02-22T17:12:46.482Z,4.60
2018-02-22T17:15:14.054Z,5.30
2018-02-22T17:17:45.443Z,10.63
2018-02-22T17:20:13.776Z,7.33
2018-02-22T17:22:41.324Z,5.07
2018-02-22T17:25:08.906Z,4.97
2018-02-22T17:27:42.165Z,8.37
2018-02-22T17:30:16.179Z,4.57
2018-02-22T17:32:43.711Z,17.97
2018-02-22T17:35:22.749Z,9.43
2018-02-22T17:37:51.062Z,7.97
2018-02-22T17:40:24.275Z,12.33
2018-02-22T17:42:52.596Z,15.43
2018-02-22T17:45:20.930Z,18.40
2018-02-22T17:47:48.500Z,21.13
2018-02-22T17:50:16.150Z,11.33
2018-02-22T17:52:43.701Z,12.30
2018-02-22T17:55:11.263Z,14.10
2018-02-22T17:57:38.812Z,15.37
2018-02-22T18:00:06.528Z,28.97
2018-02-22T18:02:34.864Z,10.90
2018-02-22T18:05:02.529Z,17.27
2018-02-22T18:07:30.089Z,7.37
2018-02-22T18:09:57.642Z,28.60
2018-02-22T18:12:25.207Z,6.80
2018-02-22T18:14:52.766Z,10.90
2018-02-22T18:17:20.314Z,7.03
2018-02-22T18:19:47.871Z,9.63
2018-02-22T18:22:15.425Z,11.53
2018-02-22T18:24:43.004Z,6.23
2018-02-22T18:27:10.556Z,21.30
2018-02-22T18:29:38.107Z,21.90
2018-02-22T18:32:05.751Z,7.57
2018-02-22T18:34:33.299Z,7.70
2018-02-22T18:37:01.628Z,7.93
2018-02-22T18:39:29.188Z,6.47
2018-02-22T18:42:02.463Z,11.17
2018-02-22T18:44:47.695Z,6.60
2018-02-22T18:47:16.015Z,9.73
2018-02-22T18:49:43.590Z,6.13
2018-02-22T18:52:11.155Z,6.40
2018-02-22T18:54:38.700Z,9.60
2018-02-22T18:57:07.128Z,9.93
2018-02-22T18:59:34.759Z,5.70
2018-02-22T19:02:02.302Z,4.97
2018-02-22T19:04:29.848Z,6.10
2018-02-22T19:06:57.389Z,5.83
2018-02-22T19:09:25.694Z,7.90
2018-02-22T19:11:53.267Z,9.23
2018-02-22T19:14:20.803Z,6.50
2018-02-22T19:16:48.349Z,9.80
2018-02-22T19:19:16.669Z,10.87
2018-02-22T19:21:44.236Z,6.40
2018-02-22T19:24:11.890Z,9.67
2018-02-22T19:26:39.447Z,7.50
2018-02-22T19:29:07.038Z,6.63
2018-02-22T19:31:34.584Z,6.40
2018-02-22T19:34:02.149Z,6.30
2018-02-22T19:36:29.718Z,6.43
2018-02-22T19:38:57.371Z,10.53
2018-02-22T19:41:24.961Z,5.80
2018-02-22T19:43:53.398Z,9.53
2018-02-22T19:46:20.924Z,7.30
2018-02-22T19:48:48.503Z,11.30
2018-02-22T19:51:16.087Z,9.47
2018-02-22T19:53:43.620Z,6.73
2018-02-22T19:56:11.163Z,7.27
2018-02-22T19:58:38.721Z,19.80
2018-02-22T20:01:06.837Z,7.70
2018-02-22T20:03:34.379Z,14.87
2018-02-22T20:06:01.941Z,11.10
2018-02-22T20:08:29.495Z,10.40
2018-02-22T20:10:57.066Z,14.13
2018-02-22T20:13:24.621Z,9.87
2018-02-22T20:15:52.172Z,5.60
2018-02-22T20:18:19.758Z,15.20
2018-02-22T20:20:47.313Z,9.87
2018-02-22T20:23:14.856Z,14.10
2018-02-22T20:25:42.449Z,20.63
2018-02-22T20:28:10.018Z,15.23
2018-02-22T20:30:37.568Z,14.70
2018-02-22T20:33:05.204Z,12.40
2018-02-22T20:35:32.769Z,20.27
2018-02-22T20:38:00.341Z,9.13
2018-02-22T20:40:28.000Z,15.33
2018-02-22T20:42:55.583Z,16.83
2018-02-22T20:45:23.152Z,10.13
2018-02-22T20:47:50.696Z,14.83
2018-02-22T20:50:19.035Z,13.30
2018-02-22T20:52:52.131Z,15.60
2018-02-22T20:55:20.509Z,13.60
2018-02-22T20:57:48.067Z,9.67
2018-02-22T21:00:15.622Z,10.93
2018-02-22T21:02:43.192Z,14.07
2018-02-22T21:05:10.740Z,14.63
2018-02-22T21:07:39.110Z,11.27
2018-02-22T21:10:06.683Z,10.27
2018-02-22T21:12:34.247Z,15.63
2018-02-22T21:15:01.828Z,9.40
2018-02-22T21:17:29.392Z,9.27
2018-02-22T21:19:57.050Z,11.73
2018-02-22T21:22:24.587Z,13.93
2018-02-22T21:24:52.126Z,9.27
2018-02-22T21:27:19.718Z,9.60
2018-02-22T21:29:47.290Z,11.77
2018-02-22T21:32:14.840Z,11.43
2018-02-22T21:34:42.418Z,10.23
2018-02-22T21:37:09.982Z,14.20
2018-02-22T21:39:37.589Z,12.30
2018-02-22T21:42:05.152Z,13.80
2018-02-22T21:44:32.707Z,15.10
2018-02-22T21:47:00.261Z,7.80
2018-02-22T21:49:28.569Z,10.50
2018-02-22T21:51:56.122Z,10.33
2018-02-22T21:54:23.695Z,13.37
2018-02-22T21:56:51.272Z,10.43
2018-02-22T21:59:18.930Z,8.90
2018-02-22T22:01:46.489Z,12.70
2018-02-22T22:04:14.039Z,8.47
2018-02-22T22:06:41.621Z,13.40
2018-02-22T22:09:09.182Z,12.70
2018-02-22T22:11:36.736Z,12.77
2018-02-22T22:14:04.288Z,10.83
2018-02-22T22:16:31.856Z,8.77
2018-02-22T22:18:59.408Z,15.00
2018-02-22T22:21:26.955Z,8.23
2018-02-22T22:23:54.527Z,12.47
2018-02-22T22:26:22.065Z,8.70
2018-02-22T22:28:49.604Z,8.10
2018-02-22T22:31:17.941Z,13.77
2018-02-22T22:33:45.604Z,11.67
2018-02-22T22:36:13.254Z,12.27
2018-02-22T22:38:40.804Z,8.00
2018-02-22T22:41:08.365Z,8.77
2018-02-22T22:43:35.916Z,8.30
2018-02-22T22:46:03.486Z,12.80
2018-02-22T22:48:31.019Z,7.73
2018-02-22T22:50:58.572Z,9.07
2018-02-22T22:53:26.168Z,13.37
2018-02-22T22:55:53.712Z,8.10
2018-02-22T22:58:21.269Z,7.73
2018-02-22T23:00:48.843Z,13.57
2018-02-22T23:03:16.392Z,8.70
2018-02-22T23:05:43.952Z,12.27
2018-02-22T23:08:11.521Z,8.77
2018-02-22T23:10:39.062Z,13.87
2018-02-22T23:13:06.636Z,13.70
2018-02-22T23:15:34.315Z,13.67
2018-02-22T23:18:01.855Z,13.50
2018-02-22T23:20:29.408Z,13.27
2018-02-22T23:22:57.014Z,13.27
2018-02-22T23:25:24.559Z,14.20
2018-02-22T23:27:52.095Z,12.33
2018-02-22T23:30:19.671Z,14.30
2018-02-22T23:32:47.227Z,13.13
2018-02-22T23:35:14.774Z,13.93
2018-02-22T23:37:42.341Z,12.30
2018-02-22T23:43:13.569Z,7.67
2018-02-22T23:45:41.883Z,10.07
2018-02-22T23:48:09.437Z,12.87
2018-02-22T23:50:37.027Z,11.37
2018-02-22T23:53:04.596Z,12.50
2018-02-22T23:55:32.166Z,12.23
2018-02-22T23:57:59.802Z,11.60
